createdAt,value
2023-01-17T00:02:28.647Z,14.15
2023-01-17T00:05:16.840Z,14.18
2023-01-17T00:08:03.040Z,14.26
2023-01-17T00:10:31.975Z,14.27
2023-01-17T00:13:02.275Z,14.20
2023-01-17T00:15:32.575Z,14.19
2023-01-17T00:18:01.295Z,14.14
2023-01-17T00:21:05.683Z,14.00
2023-01-17T00:23:51.749Z,14.01
2023-01-17T00:26:21.303Z,14.22
2023-01-17T00:28:49.275Z,14.14
2023-01-17T00:31:17.524Z,14.23
2023-01-17T00:33:44.896Z,14.08
2023-01-17T00:36:14.349Z,14.08
2023-01-17T00:38:42.084Z,14.04
2023-01-17T00:41:11.644Z,14.13
2023-01-17T00:43:57.996Z,14.19
2023-01-17T00:46:44.251Z,14.06
2023-01-17T00:49:30.287Z,14.02
2023-01-17T00:52:18.289Z,14.03
2023-01-17T00:55:03.950Z,13.93
2023-01-17T00:57:50.010Z,13.89
2023-01-17T01:00:37.113Z,13.90
2023-01-17T01:03:27.602Z,14.02
2023-01-17T01:06:13.556Z,14.03
2023-01-17T01:09:01.029Z,14.15
2023-01-17T01:11:47.101Z,14.21
2023-01-17T01:14:33.756Z,14.20
2023-01-17T01:17:19.666Z,14.22
2023-01-17T01:20:05.708Z,14.09
2023-01-17T01:22:52.014Z,14.13
2023-01-17T01:25:39.777Z,14.02
2023-01-17T01:28:29.107Z,14.08
2023-01-17T01:31:17.748Z,14.09
2023-01-17T01:33:46.264Z,14.14
2023-01-17T01:36:15.353Z,14.08
2023-01-17T01:38:44.087Z,14.12
2023-01-17T01:41:14.266Z,13.94
2023-01-17T01:43:47.333Z,13.96
2023-01-17T01:46:19.585Z,13.91
2023-01-17T01:48:53.615Z,13.97
2023-01-17T01:51:27.009Z,13.83
2023-01-17T01:54:00.199Z,13.89
2023-01-17T01:56:32.061Z,13.91
2023-01-17T01:59:04.241Z,13.80
2023-01-17T02:01:37.539Z,13.81
2023-01-17T02:04:09.987Z,13.76
2023-01-17T02:06:40.942Z,13.75
2023-01-17T02:09:12.258Z,13.68
2023-01-17T02:11:43.210Z,13.51
2023-01-17T02:14:16.820Z,13.58
2023-01-17T02:17:03.231Z,13.54
2023-01-17T02:20:04.952Z,13.63
2023-01-17T02:23:05.157Z,13.60
2023-01-17T02:25:57.527Z,13.46
2023-01-17T02:28:47.693Z,13.53
2023-01-17T02:31:23.202Z,13.51
2023-01-17T02:34:00.022Z,13.52
2023-01-17T02:36:34.267Z,13.49
2023-01-17T02:39:09.877Z,13.63
2023-01-17T02:41:42.520Z,13.57
2023-01-17T02:44:16.571Z,13.58
2023-01-17T02:46:48.570Z,13.54
2023-01-17T02:49:20.507Z,13.50
2023-01-17T02:52:05.812Z,13.63
2023-01-17T02:55:06.679Z,13.76
2023-01-17T02:57:59.511Z,13.88
2023-01-17T03:00:36.961Z,13.96
2023-01-17T03:03:15.233Z,14.09
2023-01-17T03:05:48.724Z,14.03
2023-01-17T03:08:18.468Z,14.10
2023-01-17T03:10:47.714Z,14.28
2023-01-17T03:13:16.348Z,14.35
2023-01-17T03:15:45.325Z,14.10
2023-01-17T03:18:17.186Z,14.28
2023-01-17T03:20:45.971Z,14.32
2023-01-17T03:23:14.514Z,14.45
2023-01-17T03:25:43.350Z,14.51
2023-01-17T03:28:11.948Z,14.64
2023-01-17T03:30:40.815Z,14.67
2023-01-17T03:33:09.546Z,14.75
2023-01-17T03:35:39.917Z,14.59
2023-01-17T03:38:08.525Z,14.51
2023-01-17T03:40:37.321Z,14.72
2023-01-17T03:43:05.883Z,14.54
2023-01-17T03:45:34.691Z,14.22
2023-01-17T03:48:03.272Z,13.80
2023-01-17T03:50:32.089Z,13.71
2023-01-17T03:53:02.072Z,13.19
2023-01-17T03:55:30.827Z,13.36
2023-01-17T03:57:59.375Z,13.58
2023-01-17T04:00:28.145Z,13.62
2023-01-17T04:02:56.773Z,13.82
2023-01-17T04:05:25.640Z,13.80
2023-01-17T04:07:54.217Z,14.14
2023-01-17T04:10:24.436Z,13.53
2023-01-17T04:12:52.973Z,13.89
2023-01-17T04:15:21.816Z,13.99
2023-01-17T04:17:50.556Z,13.38
2023-01-17T04:20:34.029Z,14.07
2023-01-17T04:23:03.278Z,13.95
2023-01-17T04:25:33.923Z,13.80
2023-01-17T04:28:03.562Z,14.13
2023-01-17T04:30:33.088Z,14.08
2023-01-17T04:33:01.706Z,14.24
2023-01-17T04:35:31.440Z,14.40
2023-01-17T04:37:59.948Z,14.45
2023-01-17T04:40:29.654Z,14.43
2023-01-17T04:42:59.845Z,14.39
2023-01-17T04:45:28.795Z,14.07
2023-01-17T04:47:57.432Z,13.91
2023-01-17T04:50:26.196Z,14.00
2023-01-17T04:52:54.769Z,13.75
2023-01-17T04:55:23.755Z,13.54
2023-01-17T04:57:52.233Z,13.67
2023-01-17T05:00:24.235Z,13.60
2023-01-17T05:02:53.083Z,13.18
2023-01-17T05:05:22.118Z,12.91
2023-01-17T05:07:57.300Z,12.99
2023-01-17T05:10:26.797Z,13.26
2023-01-17T05:12:56.189Z,13.08
2023-01-17T05:15:27.777Z,12.84
2023-01-17T05:17:56.880Z,12.93
2023-01-17T05:20:27.558Z,12.95
2023-01-17T05:22:57.655Z,13.09
2023-01-17T05:25:28.507Z,13.16
2023-01-17T05:27:57.090Z,13.42
2023-01-17T05:30:28.334Z,13.29
2023-01-17T05:32:58.628Z,13.26
2023-01-17T05:35:30.221Z,13.09
2023-01-17T05:37:58.760Z,12.81
2023-01-17T05:40:30.867Z,12.86
2023-01-17T05:43:01.675Z,12.66
2023-01-17T05:45:33.600Z,12.50
2023-01-17T05:48:03.035Z,12.46
2023-01-17T05:50:34.148Z,12.71
2023-01-17T05:53:05.491Z,13.05
2023-01-17T05:55:34.961Z,13.21
2023-01-17T05:58:04.389Z,13.39
2023-01-17T06:00:34.895Z,13.38
2023-01-17T06:03:03.514Z,13.51
2023-01-17T06:05:33.058Z,13.27
2023-01-17T06:08:01.702Z,13.10
2023-01-17T06:10:30.787Z,13.16
2023-01-17T06:13:03.976Z,12.96
2023-01-17T06:15:35.584Z,12.83
2023-01-17T06:18:08.335Z,12.94
2023-01-17T06:20:37.821Z,12.58
2023-01-17T06:23:08.042Z,12.98
2023-01-17T06:25:39.151Z,13.16
2023-01-17T06:28:08.400Z,13.09
2023-01-17T06:30:38.860Z,13.23
2023-01-17T06:33:07.776Z,13.10
2023-01-17T06:35:37.726Z,12.98
2023-01-17T06:38:06.252Z,12.96
2023-01-17T06:40:35.137Z,12.80
2023-01-17T06:43:04.328Z,12.62
2023-01-17T06:45:35.976Z,12.53
2023-01-17T06:48:06.833Z,12.49
2023-01-17T06:50:35.747Z,12.53
2023-01-17T06:53:06.505Z,12.84
2023-01-17T06:55:35.973Z,12.81
2023-01-17T06:58:04.529Z,12.72
2023-01-17T07:00:35.232Z,12.63
2023-01-17T07:03:05.525Z,12.68
2023-01-17T07:05:36.364Z,12.97
2023-01-17T07:08:05.282Z,12.81
2023-01-17T07:10:34.097Z,13.27
2023-01-17T07:13:02.574Z,13.47
2023-01-17T07:15:31.383Z,13.37
2023-01-17T07:18:02.693Z,13.39
2023-01-17T07:20:33.950Z,13.52
2023-01-17T07:23:02.478Z,13.59
2023-01-17T07:25:31.349Z,13.78
2023-01-17T07:28:00.021Z,13.86
2023-01-17T07:30:29.144Z,13.84
2023-01-17T07:32:57.702Z,14.11
2023-01-17T07:35:27.285Z,14.17
2023-01-17T07:37:57.200Z,14.08
2023-01-17T07:40:27.297Z,12.40
2023-01-17T07:43:02.331Z,11.32
2023-01-17T07:45:33.420Z,11.76
2023-01-17T07:48:01.958Z,12.26
2023-01-17T07:50:30.785Z,12.18
2023-01-17T07:53:00.760Z,12.53
2023-01-17T07:55:30.045Z,12.86
2023-01-17T07:57:58.543Z,13.16
2023-01-17T08:00:27.738Z,13.33
2023-01-17T08:03:01.166Z,13.49
2023-01-17T08:05:30.804Z,13.22
2023-01-17T08:08:00.677Z,13.47
2023-01-17T08:10:29.546Z,13.59
2023-01-17T08:12:58.042Z,13.51
2023-01-17T08:15:26.995Z,13.21
2023-01-17T08:17:57.695Z,12.57
2023-01-17T08:20:28.212Z,13.18
2023-01-17T08:22:57.851Z,13.48
2023-01-17T08:25:28.748Z,13.70
2023-01-17T08:27:58.846Z,13.69
2023-01-17T08:30:27.917Z,13.82
2023-01-17T08:32:57.939Z,14.03
2023-01-17T08:35:27.976Z,14.24
2023-01-17T08:37:57.759Z,14.26
2023-01-17T08:40:27.992Z,14.28
2023-01-17T08:42:57.418Z,14.29
2023-01-17T08:45:26.448Z,14.21
2023-01-17T08:47:55.104Z,14.23
2023-01-17T08:50:25.044Z,14.32
2023-01-17T08:53:01.071Z,14.36
2023-01-17T08:55:31.632Z,14.31
2023-01-17T08:58:00.475Z,14.20
2023-01-17T09:00:29.962Z,14.30
2023-01-17T09:02:59.494Z,14.19
2023-01-17T09:05:28.686Z,14.26
2023-01-17T09:07:57.549Z,14.28
2023-01-17T09:10:27.198Z,14.21
2023-01-17T09:12:57.167Z,14.29
2023-01-17T09:15:26.143Z,14.32
2023-01-17T09:17:56.812Z,14.24
2023-01-17T09:20:30.113Z,14.29
2023-01-17T09:22:59.041Z,14.33
2023-01-17T09:25:28.212Z,14.41
2023-01-17T09:27:58.765Z,14.24
2023-01-17T09:30:27.824Z,14.48
2023-01-17T09:32:56.701Z,14.66
2023-01-17T09:35:25.523Z,14.75
2023-01-17T09:37:55.808Z,14.76
2023-01-17T09:40:26.920Z,14.92
2023-01-17T09:43:02.561Z,15.01
2023-01-17T09:45:33.806Z,15.10
2023-01-17T09:48:07.172Z,15.21
2023-01-17T09:50:43.772Z,15.44
2023-01-17T09:53:17.056Z,15.57
2023-01-17T09:55:54.385Z,15.71
2023-01-17T09:58:33.967Z,15.60
2023-01-17T10:01:14.704Z,15.42
2023-01-17T10:03:51.747Z,15.23
2023-01-17T10:06:31.745Z,15.37
2023-01-17T10:09:23.927Z,15.39
2023-01-17T10:12:16.109Z,15.70
2023-01-17T10:15:03.249Z,15.87
2023-01-17T10:17:44.880Z,16.01
2023-01-17T10:20:25.772Z,16.16
2023-01-17T10:23:11.684Z,16.24
2023-01-17T10:25:48.732Z,16.45
2023-01-17T10:28:19.935Z,16.48
2023-01-17T10:30:52.448Z,16.52
2023-01-17T10:33:23.075Z,16.47
2023-01-17T10:36:00.145Z,16.64
2023-01-17T10:38:36.464Z,16.69
2023-01-17T10:41:10.072Z,16.67
2023-01-17T10:43:47.995Z,16.64
2023-01-17T10:46:23.239Z,16.87
2023-01-17T10:48:54.036Z,16.91
2023-01-17T10:51:44.237Z,17.20
2023-01-17T10:54:26.789Z,17.27
2023-01-17T10:56:55.480Z,17.26
2023-01-17T10:59:30.838Z,17.47
2023-01-17T11:02:06.808Z,17.44
2023-01-17T11:04:38.227Z,17.52
2023-01-17T11:07:15.750Z,17.61
2023-01-17T11:09:46.168Z,17.42
2023-01-17T11:12:20.770Z,17.43
2023-01-17T11:15:03.846Z,17.22
2023-01-17T11:17:36.835Z,17.40
2023-01-17T11:20:15.337Z,17.46
2023-01-17T11:22:50.009Z,17.30
2023-01-17T11:25:23.332Z,17.32
2023-01-17T11:28:03.406Z,17.51
2023-01-17T11:30:32.316Z,17.30
2023-01-17T11:33:06.253Z,17.51
2023-01-17T11:35:37.206Z,17.54
2023-01-17T11:38:12.983Z,17.47
2023-01-17T11:40:43.939Z,17.61
2023-01-17T11:43:22.797Z,17.57
2023-01-17T11:46:15.367Z,17.28
2023-01-17T11:48:49.455Z,17.17
2023-01-17T11:51:22.483Z,17.08
2023-01-17T11:53:51.471Z,17.24
2023-01-17T11:56:30.230Z,17.17
2023-01-17T11:59:27.689Z,17.10
2023-01-17T12:02:17.525Z,17.25
2023-01-17T12:04:54.908Z,17.15
2023-01-17T12:07:35.800Z,17.27
2023-01-17T12:10:16.634Z,17.05
2023-01-17T12:13:14.804Z,17.07
2023-01-17T12:16:00.086Z,17.20
2023-01-17T12:18:37.322Z,17.12
2023-01-17T12:21:17.099Z,17.09
2023-01-17T12:23:59.369Z,16.93
2023-01-17T12:26:38.032Z,16.83
2023-01-17T12:29:47.477Z,16.59
2023-01-17T12:32:39.611Z,16.65
2023-01-17T12:35:16.404Z,16.36
2023-01-17T12:38:04.233Z,16.25
2023-01-17T12:40:38.594Z,16.23
2023-01-17T12:43:16.453Z,16.29
2023-01-17T12:45:47.037Z,16.32
2023-01-17T12:48:18.916Z,16.53
2023-01-17T12:50:53.731Z,16.57
2023-01-17T12:53:32.804Z,16.50
2023-01-17T12:56:09.566Z,16.34
2023-01-17T12:58:42.689Z,16.24
2023-01-17T13:01:21.188Z,16.29
2023-01-17T13:04:00.415Z,16.35
2023-01-17T13:06:43.333Z,16.30
2023-01-17T13:09:18.149Z,16.29
2023-01-17T13:11:51.672Z,16.37
2023-01-17T13:14:20.169Z,16.29
2023-01-17T13:16:58.004Z,16.27
2023-01-17T13:19:35.808Z,16.30
2023-01-17T13:22:09.838Z,16.34
2023-01-17T13:24:47.857Z,16.43
2023-01-17T13:27:32.526Z,16.41
2023-01-17T13:30:33.172Z,16.55
2023-01-17T13:33:18.325Z,16.34
2023-01-17T13:36:00.712Z,16.53
2023-01-17T13:38:41.482Z,16.40
2023-01-17T13:41:18.459Z,16.09
2023-01-17T13:44:08.106Z,15.99
2023-01-17T13:46:59.884Z,15.89
2023-01-17T13:49:43.973Z,15.72
2023-01-17T13:52:33.163Z,15.79
2023-01-17T13:55:04.467Z,15.67
2023-01-17T13:57:46.829Z,15.69
2023-01-17T14:00:50.460Z,15.81
2023-01-17T14:04:00.809Z,15.61
2023-01-17T14:06:41.772Z,15.30
2023-01-17T14:09:18.050Z,15.18
2023-01-17T14:12:08.336Z,15.13
2023-01-17T14:14:53.195Z,15.39
2023-01-17T14:17:48.106Z,15.49
2023-01-17T14:20:58.026Z,15.37
2023-01-17T14:23:36.312Z,15.35
2023-01-17T14:26:27.633Z,15.34
2023-01-17T14:28:59.230Z,15.23
2023-01-17T14:31:30.712Z,15.11
2023-01-17T14:34:13.727Z,14.95
2023-01-17T14:36:42.435Z,14.88
2023-01-17T14:39:22.496Z,14.85
2023-01-17T14:41:51.216Z,14.79
2023-01-17T14:44:20.492Z,14.86
2023-01-17T14:46:50.922Z,15.01
2023-01-17T14:49:24.328Z,15.10
2023-01-17T14:52:02.982Z,15.18
2023-01-17T14:54:31.947Z,15.18
2023-01-17T14:57:16.641Z,15.32
2023-01-17T14:59:46.660Z,15.19
2023-01-17T15:02:19.085Z,15.11
2023-01-17T15:04:55.710Z,15.06
2023-01-17T15:07:26.713Z,14.96
2023-01-17T15:09:55.673Z,14.98
2023-01-17T15:12:24.382Z,14.89
2023-01-17T15:14:58.503Z,15.05
2023-01-17T15:17:28.699Z,15.23
2023-01-17T15:20:01.547Z,15.30
2023-01-17T15:22:31.364Z,15.41
2023-01-17T15:25:02.411Z,15.46
2023-01-17T15:27:31.404Z,15.66
2023-01-17T15:30:03.990Z,15.60
2023-01-17T15:32:34.265Z,15.60
2023-01-17T15:35:06.369Z,15.67
2023-01-17T15:37:37.525Z,15.78
2023-01-17T15:40:17.070Z,15.75
2023-01-17T15:42:48.728Z,15.82
2023-01-17T15:45:21.354Z,15.79
2023-01-17T15:47:51.384Z,15.74
2023-01-17T15:50:39.841Z,15.88
2023-01-17T15:53:32.548Z,15.86
2023-01-17T15:56:02.141Z,15.77
2023-01-17T15:58:31.561Z,15.92
2023-01-17T16:01:00.602Z,15.98
2023-01-17T16:03:30.772Z,15.98
2023-01-17T16:06:02.914Z,16.16
2023-01-17T16:08:38.763Z,16.03
2023-01-17T16:11:09.273Z,16.17
2023-01-17T16:13:42.195Z,16.22
2023-01-17T16:16:24.616Z,16.28
2023-01-17T16:19:00.078Z,16.48
2023-01-17T16:21:32.261Z,16.49
2023-01-17T16:24:03.943Z,16.46
2023-01-17T16:26:32.848Z,16.56
2023-01-17T16:29:01.521Z,16.53
2023-01-17T16:31:30.464Z,16.63
2023-01-17T16:33:59.396Z,16.76
2023-01-17T16:36:28.354Z,16.65
2023-01-17T16:38:57.051Z,16.74
2023-01-17T16:41:27.375Z,16.83
2023-01-17T16:44:01.956Z,16.94
2023-01-17T16:46:31.466Z,16.85
2023-01-17T16:49:00.970Z,16.89
2023-01-17T16:51:29.857Z,16.91
2023-01-17T16:53:58.364Z,16.90
2023-01-17T16:56:28.619Z,17.01
2023-01-17T16:58:57.257Z,16.95
2023-01-17T17:01:26.111Z,16.98
2023-01-17T17:03:54.732Z,17.08
2023-01-17T17:06:23.834Z,17.08
2023-01-17T17:08:52.354Z,17.23
2023-01-17T17:11:23.347Z,17.08
2023-01-17T17:13:53.611Z,17.16
2023-01-17T17:16:26.458Z,17.08
2023-01-17T17:18:56.978Z,17.07
2023-01-17T17:21:26.274Z,16.99
2023-01-17T17:23:58.259Z,17.10
2023-01-17T17:26:30.931Z,17.26
2023-01-17T17:29:01.218Z,17.19
2023-01-17T17:31:30.182Z,17.23
2023-01-17T17:34:00.379Z,17.21
2023-01-17T17:36:30.100Z,17.31
2023-01-17T17:38:59.612Z,17.28
2023-01-17T17:41:31.157Z,17.20
2023-01-17T17:44:02.459Z,17.34
2023-01-17T17:46:33.969Z,17.43
2023-01-17T17:49:02.895Z,17.44
2023-01-17T17:51:33.719Z,17.53
2023-01-17T17:54:04.714Z,17.56
2023-01-17T17:56:35.511Z,17.48
2023-01-17T17:59:06.913Z,17.58
2023-01-17T18:01:38.297Z,17.43
2023-01-17T18:04:08.028Z,17.50
2023-01-17T18:06:38.666Z,17.36
2023-01-17T18:09:07.712Z,17.37
2023-01-17T18:11:37.859Z,17.42
2023-01-17T18:14:10.126Z,17.37
2023-01-17T18:16:42.356Z,17.40
2023-01-17T18:19:15.055Z,17.47
2023-01-17T18:21:44.116Z,17.41
2023-01-17T18:24:14.542Z,17.37
2023-01-17T18:26:46.000Z,17.32
2023-01-17T18:29:17.780Z,17.37
2023-01-17T18:31:48.104Z,17.30
2023-01-17T18:34:19.339Z,17.32
2023-01-17T18:36:48.776Z,17.26
2023-01-17T18:39:19.426Z,17.23
2023-01-17T18:41:48.477Z,17.27
2023-01-17T18:44:21.737Z,17.41
2023-01-17T18:46:51.138Z,17.41
2023-01-17T18:49:19.710Z,17.34
2023-01-17T18:51:51.245Z,17.28
2023-01-17T18:54:21.005Z,17.33
2023-01-17T18:56:51.108Z,17.30
2023-01-17T18:59:23.652Z,17.28
2023-01-17T19:01:53.194Z,17.34
2023-01-17T19:04:21.797Z,17.38
2023-01-17T19:06:51.224Z,17.46
2023-01-17T19:09:19.784Z,17.46
2023-01-17T19:11:48.847Z,17.55
2023-01-17T19:14:17.514Z,17.54
2023-01-17T19:16:47.986Z,17.45
2023-01-17T19:19:16.981Z,17.56
2023-01-17T19:21:45.850Z,17.70
2023-01-17T19:24:14.541Z,17.79
2023-01-17T19:26:43.495Z,17.67
2023-01-17T19:29:12.558Z,17.57
2023-01-17T19:31:43.344Z,17.73
2023-01-17T19:34:16.008Z,17.71
2023-01-17T19:36:45.004Z,17.76
2023-01-17T19:39:13.619Z,17.69
2023-01-17T19:41:44.538Z,17.72
2023-01-17T19:44:15.068Z,17.81
2023-01-17T19:46:46.099Z,17.83
2023-01-17T19:49:20.738Z,17.85
2023-01-17T19:51:50.259Z,17.80
2023-01-17T19:54:18.907Z,17.89
2023-01-17T19:56:47.922Z,18.05
2023-01-17T19:59:16.519Z,18.00
2023-01-17T20:01:45.510Z,18.05
2023-01-17T20:04:18.775Z,18.02
2023-01-17T20:06:48.078Z,18.11
2023-01-17T20:09:16.619Z,18.17
2023-01-17T20:11:46.778Z,18.29
2023-01-17T20:14:16.575Z,18.13
2023-01-17T20:17:05.581Z,18.29
2023-01-17T20:19:35.758Z,18.26
2023-01-17T20:22:05.442Z,18.36
2023-01-17T20:24:34.311Z,18.21
2023-01-17T20:27:03.096Z,18.29
2023-01-17T20:29:31.620Z,18.15
2023-01-17T20:32:00.522Z,18.23
2023-01-17T20:34:29.281Z,18.24
2023-01-17T20:36:59.501Z,18.15
2023-01-17T20:39:28.462Z,18.24
2023-01-17T20:41:57.757Z,18.34
2023-01-17T20:44:26.325Z,18.31
2023-01-17T20:46:55.213Z,18.34
2023-01-17T20:49:23.948Z,18.40
2023-01-17T20:51:54.966Z,18.33
2023-01-17T20:54:25.279Z,18.38
2023-01-17T20:56:55.440Z,18.53
2023-01-17T20:59:26.306Z,18.54
2023-01-17T21:01:55.316Z,18.65
2023-01-17T21:04:26.323Z,18.57
2023-01-17T21:06:55.411Z,18.63
2023-01-17T21:09:25.539Z,18.64
2023-01-17T21:11:54.485Z,18.81
2023-01-17T21:14:23.047Z,18.85
2023-01-17T21:16:51.959Z,18.69
2023-01-17T21:19:20.759Z,18.88
2023-01-17T21:21:50.221Z,18.83
2023-01-17T21:24:20.170Z,18.86
2023-01-17T21:26:51.568Z,18.92
2023-01-17T21:29:20.339Z,18.79
2023-01-17T21:31:49.168Z,18.70
2023-01-17T21:34:17.759Z,18.86
2023-01-17T21:36:46.720Z,18.78
2023-01-17T21:39:20.785Z,18.38
2023-01-17T21:41:51.088Z,18.68
2023-01-17T21:44:21.767Z,18.69
2023-01-17T21:46:56.005Z,18.79
2023-01-17T21:49:25.502Z,18.62
2023-01-17T21:52:12.181Z,18.66
2023-01-17T21:54:58.430Z,18.84
2023-01-17T21:57:46.293Z,18.38
2023-01-17T22:00:15.763Z,18.27
2023-01-17T22:02:45.756Z,18.38
2023-01-17T22:05:16.583Z,18.00
2023-01-17T22:08:00.297Z,17.68
2023-01-17T22:10:28.969Z,17.70
2023-01-17T22:12:59.176Z,17.62
2023-01-17T22:15:27.880Z,17.60
2023-01-17T22:17:57.063Z,17.59
2023-01-17T22:20:25.958Z,17.31
2023-01-17T22:22:55.049Z,17.43
2023-01-17T22:25:24.541Z,17.60
2023-01-17T22:27:53.354Z,17.42
2023-01-17T22:30:23.320Z,17.57
2023-01-17T22:32:52.362Z,17.55
2023-01-17T22:35:21.570Z,17.47
2023-01-17T22:37:50.647Z,17.65
2023-01-17T22:40:19.310Z,17.50
2023-01-17T22:42:48.185Z,17.38
2023-01-17T22:45:17.749Z,17.47
2023-01-17T22:47:47.969Z,17.43
2023-01-17T22:50:16.912Z,17.35
2023-01-17T22:52:45.740Z,17.48
2023-01-17T22:55:14.664Z,17.46
2023-01-17T22:57:45.895Z,17.46
2023-01-17T23:00:15.503Z,17.30
2023-01-17T23:02:44.496Z,17.50
2023-01-17T23:05:14.595Z,17.37
2023-01-17T23:07:46.551Z,17.37
2023-01-17T23:10:37.028Z,17.47
2023-01-17T23:13:09.837Z,17.58
2023-01-17T23:15:56.842Z,17.51
2023-01-17T23:18:43.059Z,17.55
2023-01-17T23:21:12.945Z,17.54
2023-01-17T23:23:41.863Z,17.49
2023-01-17T23:26:10.482Z,17.59
2023-01-17T23:28:38.345Z,17.60
2023-01-17T23:31:08.714Z,17.77
2023-01-17T23:33:37.690Z,17.95
2023-01-17T23:36:09.361Z,18.09
2023-01-17T23:38:44.149Z,17.66
2023-01-17T23:41:30.177Z,17.72
2023-01-17T23:44:00.072Z,17.88
2023-01-17T23:46:30.218Z,17.84
2023-01-17T23:48:59.296Z,17.78
2023-01-17T23:51:27.854Z,17.56
2023-01-17T23:54:05.410Z,17.69
2023-01-17T23:56:34.254Z,17.64
2023-01-17T23:59:04.511Z,17.58
